< < Back
Terminal Aerodrome Forecast


Current Version              Previous Versions:   1  2  3  4  5  6  7  8  9  

Terminal Aerodrome Forecast

976
FTUS44 KMOB 311736
TAFMOB
TAF
KMOB 311736Z 3118/0118 05007KT P6SM VCTS SCT050CB SCT250
      TEMPO 3119/3123 VRB15G35KT 2SM TSRA OVC030CB
     FM010300 04005KT P6SM SCT040 SCT250=



Latest METAR

285
SAUS80 KWBC 010500 RRH
MTRMOB
METAR KMOB 010456Z AUTO 33004KT 10SM CLR 24/21 A2994 RMK AO2 SLP135
T02440206


USA.gov is the U.S. government's official web portal to all federal, state and local government web resources and services.